Time;durP1;ratioP1;P1;durP2;ratioP2;P2;SDS_P1;SDS_P2;PMS_P1;PMS_P2;Temp;Humidity;BMP_temperature;BMP_pressure;BME280_temperature;BME280_humidity;BME280_pressure;Samples;Min_cycle;Max_cycle;Signal;HPM_P1;HPM_P2
2023/02/14 00:02:56;;;;;;;20.02;11.65;;;2.40;99.90;;;;;;12383421;28;20049;-82
2023/02/14 00:08:58;;;;;;;21.25;12.60;;;2.30;99.90;;;;;;12382120;28;20490;-83
2023/02/14 00:21:21;;;;;;;21.83;12.15;;;2.20;99.90;;;;;;12394392;28;20762;-83
2023/02/14 00:27:23;;;;;;;24.98;12.57;;;2.20;99.90;;;;;;12384942;28;20077;-83
2023/02/14 00:33:24;;;;;;;24.42;13.15;;;2.20;99.90;;;;;;12370739;28;20101;-82
2023/02/14 00:39:26;;;;;;;26.75;13.15;;;2.30;99.90;;;;;;12375957;28;20115;-83
2023/02/14 00:45:28;;;;;;;23.35;12.57;;;2.30;99.90;;;;;;12395228;28;20092;-82
2023/02/14 00:51:30;;;;;;;19.92;11.40;;;2.10;99.90;;;;;;12374968;28;20475;-83
2023/02/14 00:57:31;;;;;;;25.70;12.95;;;2.20;99.90;;;;;;12374121;28;20050;-83
2023/02/14 01:03:34;;;;;;;21.88;12.27;;;2.10;99.90;;;;;;12379516;28;20038;-83
2023/02/14 01:09:36;;;;;;;22.00;12.38;;;2.10;99.90;;;;;;12377816;28;20054;-82
2023/02/14 01:15:40;;;;;;;24.25;12.25;;;2.10;99.90;;;;;;12390029;28;20057;-82
2023/02/14 01:21:42;;;;;;;23.23;11.43;;;2.10;99.90;;;;;;12378859;28;20052;-82
2023/02/14 01:27:44;;;;;;;85.43;14.57;;;2.10;99.90;;;;;;12378397;28;20093;-82
2023/02/14 01:33:48;;;;;;;90.78;13.45;;;2.10;99.90;;;;;;12379773;28;20047;-82
2023/02/14 01:39:49;;;;;;;54.77;11.57;;;2.10;99.90;;;;;;12371914;28;20053;-82
2023/02/14 01:45:51;;;;;;;66.63;12.48;;;2.20;99.90;;;;;;12389203;28;20368;-82
2023/02/14 01:51:59;;;;;;;119.95;11.88;;;2.10;99.90;;;;;;12364551;28;20054;-82
2023/02/14 01:58:18;;;;;;;46.13;9.32;;;2.00;99.90;;;;;;12378347;28;20425;-82
2023/02/14 02:04:25;;;;;;;24.52;9.70;;;2.00;99.90;;;;;;12376521;28;20050;-82
2023/02/14 02:10:27;;;;;;;23.25;8.85;;;2.00;99.90;;;;;;12363875;28;20116;-82
2023/02/14 02:17:05;;;;;;;19.52;8.88;;;1.90;99.90;;;;;;12360855;28;20133;-82
2023/02/14 02:23:26;;;;;;;30.10;9.60;;;1.80;99.90;;;;;;12356845;28;20046;-82
2023/02/14 02:29:30;;;;;;;17.80;10.10;;;1.50;99.90;;;;;;12364218;28;20046;-82
2023/02/14 02:35:48;;;;;;;;;;;1.60;99.90;;;;;;12378639;28;20046;-82
2023/02/14 02:42:21;;;;;;;22.80;12.23;;;1.60;99.90;;;;;;12385178;28;19922;-82
2023/02/14 02:48:49;;;;;;;209.98;14.40;;;1.60;99.90;;;;;;12390802;28;20057;-82
2023/02/14 02:55:05;;;;;;;233.98;15.75;;;1.60;99.90;;;;;;12355707;28;20502;-82
2023/02/14 03:01:14;;;;;;;106.22;12.45;;;1.70;99.90;;;;;;12346238;28;20054;-82
2023/02/14 03:07:34;;;;;;;73.25;10.95;;;1.70;99.90;;;;;;12334630;28;20117;-82
2023/02/14 03:14:05;;;;;;;150.43;11.60;;;1.80;99.90;;;;;;12352574;28;20145;-82
2023/02/14 03:20:21;;;;;;;64.00;9.13;;;1.70;99.90;;;;;;12356794;28;20050;-82
2023/02/14 03:26:29;;;;;;;110.93;10.05;;;1.60;99.90;;;;;;12317548;28;20054;-82
2023/02/14 03:32:45;;;;;;;78.30;9.05;;;1.40;99.90;;;;;;12347880;28;20078;-82
2023/02/14 03:38:56;;;;;;;76.03;11.98;;;1.30;99.90;;;;;;12352332;28;20055;-82
2023/02/14 03:45:00;;;;;;;32.50;10.00;;;1.20;99.90;;;;;;12398930;28;20045;-82
2023/02/14 03:51:03;;;;;;;38.63;9.18;;;1.20;99.90;;;;;;12388236;28;20073;-82
2023/02/14 03:57:23;;;;;;;46.83;7.90;;;1.20;99.90;;;;;;12422883;28;20053;-82
2023/02/14 04:03:28;;;;;;;38.00;10.70;;;1.40;99.90;;;;;;12401197;28;20136;-82
2023/02/14 04:09:30;;;;;;;18.92;9.68;;;1.20;99.90;;;;;;12414451;28;20089;-82
2023/02/14 04:15:32;;;;;;;40.42;9.45;;;1.10;99.90;;;;;;12422190;28;20076;-82
2023/02/14 04:21:34;;;;;;;24.40;9.85;;;1.20;99.90;;;;;;12419893;28;20401;-81
2023/02/14 04:27:36;;;;;;;37.92;7.82;;;1.10;99.90;;;;;;12399615;28;20046;-81
2023/02/14 04:33:38;;;;;;;33.53;8.02;;;1.10;99.90;;;;;;12396711;28;20045;-81
2023/02/14 04:39:39;;;;;;;52.78;9.48;;;1.10;99.90;;;;;;12420604;28;20555;-81
2023/02/14 04:45:41;;;;;;;33.90;9.55;;;0.90;99.90;;;;;;12412976;28;20502;-81
2023/02/14 04:51:43;;;;;;;25.25;8.85;;;0.80;99.90;;;;;;12415765;28;20062;-81
2023/02/14 04:57:45;;;;;;;17.77;8.20;;;0.80;99.90;;;;;;12399488;28;20509;-81
2023/02/14 05:03:47;;;;;;;16.13;9.60;;;0.70;99.90;;;;;;12393630;28;20133;-81
2023/02/14 05:09:49;;;;;;;13.50;8.65;;;0.60;99.90;;;;;;12408147;28;20453;-81
2023/02/14 05:15:51;;;;;;;25.95;9.32;;;0.50;99.90;;;;;;12368791;28;20494;-81
2023/02/14 05:21:53;;;;;;;15.82;8.38;;;0.40;99.90;;;;;;12386335;28;20054;-81
2023/02/14 05:27:55;;;;;;;14.10;8.60;;;0.70;99.90;;;;;;12382732;28;20107;-81
2023/02/14 05:33:57;;;;;;;12.10;7.22;;;0.60;99.90;;;;;;12378610;28;20042;-81
2023/02/14 05:39:58;;;;;;;11.90;7.75;;;0.50;99.90;;;;;;12391307;28;20068;-81
2023/02/14 05:46:00;;;;;;;11.18;6.97;;;0.40;99.90;;;;;;12395731;28;20042;-81
2023/02/14 05:52:02;;;;;;;13.60;8.13;;;0.40;99.90;;;;;;12394878;28;20046;-81
2023/02/14 05:58:04;;;;;;;30.27;10.23;;;0.20;99.90;;;;;;12418401;28;20116;-81
2023/02/14 06:04:05;;;;;;;11.90;7.47;;;0.10;99.90;;;;;;12413582;28;20048;-81
2023/02/14 06:10:08;;;;;;;11.65;7.55;;;0.20;99.90;;;;;;12404516;28;20050;-81
2023/02/14 06:16:10;;;;;;;10.98;7.88;;;0.30;99.90;;;;;;12366071;28;20088;-81
2023/02/14 06:22:13;;;;;;;11.25;7.38;;;-0.10;99.90;;;;;;12418626;28;20085;-81
2023/02/14 06:28:16;;;;;;;14.45;8.27;;;-0.10;99.90;;;;;;12406874;28;20057;-81
2023/02/14 06:34:18;;;;;;;11.15;7.10;;;-0.30;99.90;;;;;;12422785;28;20050;-81
2023/02/14 06:40:20;;;;;;;11.07;7.72;;;-0.20;99.90;;;;;;12388922;28;20136;-81
2023/02/14 06:46:23;;;;;;;12.10;6.88;;;-0.10;99.90;;;;;;12398028;28;20050;-81
2023/02/14 06:52:25;;;;;;;13.15;7.88;;;-0.20;99.90;;;;;;12402916;28;20068;-81
2023/02/14 06:58:27;;;;;;;16.40;8.57;;;-0.20;99.90;;;;;;12338246;28;20118;-81
2023/02/14 07:04:29;;;;;;;11.05;7.43;;;0.00;99.90;;;;;;12306245;28;20046;-81
2023/02/14 07:10:31;;;;;;;11.70;7.00;;;0.00;99.90;;;;;;12315783;28;20058;-81
2023/02/14 07:16:33;;;;;;;12.45;7.97;;;0.20;99.90;;;;;;12319147;28;20055;-81
2023/02/14 07:22:36;;;;;;;13.90;8.20;;;0.30;99.90;;;;;;12325668;28;20158;-82
2023/02/14 07:28:37;;;;;;;14.52;8.38;;;0.20;99.90;;;;;;12355859;28;20093;-82
2023/02/14 07:34:39;;;;;;;15.40;8.32;;;0.20;99.90;;;;;;12350493;28;20031;-82
2023/02/14 07:40:41;;;;;;;13.00;8.23;;;0.40;99.90;;;;;;12350699;28;20042;-82
2023/02/14 07:46:43;;;;;;;10.15;6.60;;;0.60;99.90;;;;;;12361620;28;20070;-82
2023/02/14 07:52:45;;;;;;;10.75;6.93;;;0.90;99.90;;;;;;12334301;28;20159;-82
2023/02/14 07:58:48;;;;;;;11.32;5.80;;;0.80;99.90;;;;;;12354956;28;20202;-82
2023/02/14 08:04:50;;;;;;;12.40;6.90;;;1.00;99.90;;;;;;12376025;28;20049;-82
2023/02/14 08:10:52;;;;;;;10.45;6.97;;;1.00;99.90;;;;;;12363263;28;20046;-82
2023/02/14 08:16:54;;;;;;;8.77;5.68;;;1.00;99.90;;;;;;12380163;28;20100;-82
2023/02/14 08:22:56;;;;;;;11.30;6.97;;;1.20;99.90;;;;;;12380845;28;20050;-82
2023/02/14 08:28:58;;;;;;;9.43;6.13;;;1.50;99.90;;;;;;12390686;28;20108;-82
2023/02/14 08:35:00;;;;;;;11.05;6.60;;;1.80;99.90;;;;;;12376667;28;20081;-83
2023/02/14 08:41:02;;;;;;;11.32;7.53;;;1.90;99.90;;;;;;12369443;28;20149;-83
2023/02/14 08:47:09;;;;;;;13.40;8.30;;;2.30;99.90;;;;;;12387318;28;20114;-83
2023/02/14 08:53:11;;;;;;;11.63;6.60;;;2.50;99.90;;;;;;12369279;28;20050;-83
2023/02/14 08:59:13;;;;;;;10.80;7.07;;;2.50;99.90;;;;;;12418397;28;20108;-83
2023/02/14 09:05:15;;;;;;;13.80;6.97;;;2.50;99.90;;;;;;12385540;28;20141;-83
2023/02/14 09:11:21;;;;;;;12.32;7.25;;;2.60;99.90;;;;;;12398407;28;20552;-83
2023/02/14 09:17:23;;;;;;;12.48;7.53;;;2.90;99.90;;;;;;12388774;28;20054;-83
2023/02/14 09:23:24;;;;;;;12.52;8.18;;;2.90;99.90;;;;;;12372458;28;20059;-83
2023/02/14 09:29:28;;;;;;;12.63;7.97;;;3.10;99.90;;;;;;12400484;28;20049;-84
2023/02/14 09:41:56;;;;;;;14.18;8.57;;;3.20;99.90;;;;;;12417679;28;20331;-84
2023/02/14 09:48:05;;;;;;;13.18;8.52;;;3.40;99.90;;;;;;12404127;28;20046;-84
2023/02/14 09:54:20;;;;;;;12.90;8.88;;;3.60;99.90;;;;;;12394864;28;20040;-84
2023/02/14 10:00:33;;;;;;;13.20;8.50;;;3.60;99.90;;;;;;12421513;28;20413;-84
2023/02/14 10:06:48;;;;;;;14.05;9.38;;;3.70;99.90;;;;;;12409958;28;20081;-84
2023/02/14 10:13:15;;;;;;;17.02;8.48;;;4.00;99.90;;;;;;12422332;28;20046;-84
2023/02/14 10:19:23;;;;;;;15.20;10.18;;;4.60;99.90;;;;;;12423857;28;20092;-84
2023/02/14 10:25:38;;;;;;;11.85;8.10;;;4.80;99.90;;;;;;12402853;28;20049;-84
2023/02/14 10:31:54;;;;;;;10.95;7.25;;;5.20;99.90;;;;;;12404504;28;20042;-84
2023/02/14 10:38:16;;;;;;;15.13;9.35;;;5.50;99.90;;;;;;12401650;28;20409;-85
2023/02/14 10:44:26;;;;;;;12.55;8.48;;;5.70;99.90;;;;;;12395054;28;20037;-84
2023/02/14 10:50:45;;;;;;;11.77;8.23;;;6.00;99.90;;;;;;12426646;28;20092;-85
2023/02/14 10:57:06;;;;;;;14.05;8.70;;;6.30;99.90;;;;;;12414566;28;20049;-85
2023/02/14 11:03:09;;;;;;;13.85;9.48;;;6.40;99.90;;;;;;12388867;28;20111;-85
2023/02/14 11:09:11;;;;;;;14.13;9.60;;;6.70;99.90;;;;;;12388376;28;20409;-85
2023/02/14 11:15:13;;;;;;;12.13;8.25;;;7.20;99.90;;;;;;12394149;28;20053;-85
2023/02/14 11:21:29;;;;;;;10.88;7.82;;;7.70;99.90;;;;;;12385249;28;20058;-85
2023/02/14 11:27:31;;;;;;;13.80;9.18;;;8.00;99.90;;;;;;12393244;28;20180;-84
2023/02/14 11:33:42;;;;;;;12.93;8.38;;;8.00;99.90;;;;;;12370832;28;20488;-85
2023/02/14 11:39:44;;;;;;;14.85;8.65;;;8.10;99.90;;;;;;12388013;28;20401;-85
2023/02/14 11:45:47;;;;;;;13.55;9.20;;;8.40;99.90;;;;;;12376993;28;20050;-85
2023/02/14 11:51:51;;;;;;;14.35;9.55;;;8.80;99.90;;;;;;12421421;28;20125;-85
2023/02/14 11:57:55;;;;;;;14.52;8.52;;;9.00;99.90;;;;;;12422282;28;20104;-85
2023/02/14 12:03:58;;;;;;;;;;;9.10;99.90;;;;;;12420434;28;20080;-85
2023/02/14 12:10:14;;;;;;;11.50;8.15;;;9.30;99.90;;;;;;12413548;28;19922;-85
2023/02/14 12:16:27;;;;;;;13.07;8.00;;;9.60;99.90;;;;;;12419576;28;20054;-85
2023/02/14 12:22:35;;;;;;;16.63;8.48;;;9.80;99.90;;;;;;12411584;28;20053;-85
2023/02/14 12:28:46;;;;;;;14.27;8.85;;;10.00;99.90;;;;;;12428884;28;20045;-85
2023/02/14 12:34:49;;;;;;;13.98;8.50;;;10.00;99.90;;;;;;12421420;28;20100;-85
2023/02/14 12:41:28;;;;;;;14.30;8.95;;;10.20;99.90;;;;;;12423977;28;20061;-85
2023/02/14 12:47:46;;;;;;;14.18;8.63;;;10.30;99.90;;;;;;12416464;28;20092;-85
2023/02/14 12:53:51;;;;;;;9.60;6.43;;;10.40;99.90;;;;;;12418198;28;20116;-85
2023/02/14 13:00:25;;;;;;;6.75;4.85;;;10.50;99.90;;;;;;12427342;28;20064;-85
2023/02/14 13:06:30;;;;;;;7.00;4.40;;;10.70;99.90;;;;;;12411668;28;20045;-85
2023/02/14 13:12:48;;;;;;;5.75;3.80;;;10.90;99.90;;;;;;12424930;28;20061;-85
2023/02/14 13:19:19;;;;;;;5.50;3.58;;;11.00;99.90;;;;;;12425670;28;20136;-82
2023/02/14 13:25:30;;;;;;;6.60;3.10;;;11.10;99.90;;;;;;12426366;28;20141;-85
2023/02/14 13:31:32;;;;;;;5.82;3.28;;;11.30;99.90;;;;;;12430146;28;20054;-85
2023/02/14 13:37:35;;;;;;;5.57;3.10;;;11.30;99.90;;;;;;12411641;28;20061;-85
2023/02/14 13:43:55;;;;;;;6.18;3.80;;;11.50;99.90;;;;;;12425444;28;20544;-85
2023/02/14 13:50:00;;;;;;;7.88;3.88;;;11.40;99.90;;;;;;12415587;28;20108;-85
2023/02/14 13:56:24;;;;;;;6.53;3.90;;;11.50;99.90;;;;;;12417881;28;20049;-85
2023/02/14 14:02:27;;;;;;;7.50;4.35;;;11.30;99.90;;;;;;12395454;28;20553;-85
2023/02/14 14:08:37;;;;;;;9.52;4.75;;;11.30;99.90;;;;;;12432235;28;20132;-85
2023/02/14 14:14:39;;;;;;;7.28;4.15;;;11.20;99.90;;;;;;12414502;28;20099;-85
2023/02/14 14:20:46;;;;;;;7.93;4.55;;;11.20;99.90;;;;;;12408266;28;20092;-85
2023/02/14 14:27:11;;;;;;;6.80;3.97;;;11.00;99.90;;;;;;12421053;28;20101;-84
2023/02/14 14:33:25;;;;;;;6.53;4.20;;;10.90;99.90;;;;;;12402009;28;20100;-84
2023/02/14 14:39:29;;;;;;;5.82;3.58;;;10.90;99.90;;;;;;12418007;28;20062;-84
2023/02/14 14:45:32;;;;;;;6.10;3.60;;;10.60;99.90;;;;;;12414012;28;20057;-84
2023/02/14 14:51:35;;;;;;;6.40;3.55;;;10.50;99.90;;;;;;12395779;28;20053;-84
2023/02/14 14:57:37;;;;;;;6.03;3.38;;;10.70;99.90;;;;;;12409031;28;20060;-84
2023/02/14 15:03:39;;;;;;;6.32;3.40;;;10.40;99.90;;;;;;12421559;28;20038;-84
2023/02/14 15:09:41;;;;;;;5.43;2.83;;;10.30;99.90;;;;;;12400716;28;20054;-84
2023/02/14 15:15:50;;;;;;;9.20;5.30;;;10.10;99.90;;;;;;12429730;28;20173;-84
2023/02/14 15:21:52;;;;;;;10.95;6.82;;;10.10;99.90;;;;;;12413042;28;20042;-84
2023/02/14 15:27:54;;;;;;;10.10;6.53;;;10.00;99.90;;;;;;12403016;28;20080;-84
2023/02/14 15:33:58;;;;;;;12.75;7.13;;;9.80;99.90;;;;;;12408642;28;20084;-84
2023/02/14 15:40:01;;;;;;;11.80;7.00;;;9.70;99.90;;;;;;12397283;28;20046;-84
2023/02/14 15:46:31;;;;;;;10.70;6.93;;;9.70;99.90;;;;;;12354012;28;20099;-84
2023/02/14 15:52:33;;;;;;;10.48;7.07;;;9.60;99.90;;;;;;12347121;28;20046;-84
2023/02/14 15:58:37;;;;;;;16.30;7.88;;;9.40;99.90;;;;;;12373164;28;20515;-84
2023/02/14 16:04:39;;;;;;;12.82;7.97;;;9.40;99.90;;;;;;12390230;28;20092;-84
2023/02/14 16:10:41;;;;;;;11.65;7.25;;;9.50;99.90;;;;;;12407350;28;20054;-84
2023/02/14 16:16:56;;;;;;;16.98;7.38;;;9.30;99.90;;;;;;12420979;28;20403;-84
2023/02/14 16:23:20;;;;;;;12.27;7.18;;;9.00;99.90;;;;;;12405133;28;20081;-84
2023/02/14 16:29:22;;;;;;;12.48;6.53;;;9.10;99.90;;;;;;12410272;28;20108;-84
2023/02/14 16:35:24;;;;;;;13.40;7.63;;;8.90;99.90;;;;;;12364081;28;20046;-84
2023/02/14 16:41:28;;;;;;;15.27;8.75;;;8.60;99.90;;;;;;12365877;28;20181;-84
2023/02/14 16:47:30;;;;;;;16.10;10.57;;;8.30;99.90;;;;;;12388009;28;20089;-84
2023/02/14 16:53:32;;;;;;;14.55;8.05;;;8.30;99.90;;;;;;12342395;28;20494;-84
2023/02/14 16:59:34;;;;;;;13.90;7.47;;;7.90;99.90;;;;;;12390335;28;20173;-84
2023/02/14 17:05:38;;;;;;;15.18;8.75;;;7.50;99.90;;;;;;12373950;28;20062;-84
2023/02/14 17:11:47;;;;;;;13.63;8.30;;;7.10;99.90;;;;;;12367862;28;20047;-84
2023/02/14 17:17:50;;;;;;;15.52;9.13;;;6.80;99.90;;;;;;12365678;28;20108;-84
2023/02/14 17:23:52;;;;;;;14.57;9.00;;;6.70;99.90;;;;;;12363171;28;20050;-84
2023/02/14 17:29:55;;;;;;;14.13;9.73;;;6.30;99.90;;;;;;12347689;28;20081;-83
2023/02/14 17:36:05;;;;;;;21.52;11.63;;;6.50;99.90;;;;;;12368395;28;20161;-84
2023/02/14 17:42:07;;;;;;;17.48;9.05;;;6.60;99.90;;;;;;12377172;28;20058;-84
2023/02/14 17:48:12;;;;;;;14.23;9.00;;;6.30;99.90;;;;;;12369905;28;20069;-84
2023/02/14 17:54:14;;;;;;;14.13;8.68;;;6.10;99.90;;;;;;12357286;28;20061;-84
2023/02/14 18:00:20;;;;;;;21.73;8.75;;;5.80;99.90;;;;;;12344188;28;20152;-84
2023/02/14 18:06:22;;;;;;;15.13;9.23;;;6.10;99.90;;;;;;12377376;28;20051;-83
2023/02/14 18:12:24;;;;;;;16.60;9.45;;;6.80;99.90;;;;;;12373508;28;20112;-84
2023/02/14 18:18:26;;;;;;;18.77;11.73;;;7.10;99.90;;;;;;12346344;28;20054;-84
2023/02/14 18:24:31;;;;;;;15.65;9.48;;;7.40;99.90;;;;;;12353418;28;20046;-84
2023/02/14 18:30:36;;;;;;;13.73;8.57;;;7.40;99.90;;;;;;12336472;28;20199;-84
2023/02/14 18:36:40;;;;;;;12.65;7.63;;;7.20;99.90;;;;;;12361117;28;20483;-84
2023/02/14 18:42:42;;;;;;;13.07;7.47;;;7.30;99.90;;;;;;12335652;28;20461;-84
2023/02/14 18:48:45;;;;;;;12.70;8.20;;;7.40;99.90;;;;;;12371450;28;20054;-83
2023/02/14 18:54:47;;;;;;;11.48;7.30;;;7.50;99.90;;;;;;12350687;28;20104;-84
2023/02/14 19:00:48;;;;;;;14.45;8.25;;;7.60;99.90;;;;;;12361496;28;20046;-83
2023/02/14 19:06:51;;;;;;;11.90;7.30;;;7.60;99.90;;;;;;12368624;28;20133;-84
2023/02/14 19:12:52;;;;;;;12.30;7.07;;;7.60;99.90;;;;;;12361962;28;20495;-83
2023/02/14 19:18:54;;;;;;;12.38;7.43;;;7.50;99.90;;;;;;12374198;28;20042;-84
2023/02/14 19:24:56;;;;;;;12.90;6.88;;;7.30;99.90;;;;;;12359830;28;20167;-84
2023/02/14 19:30:58;;;;;;;12.15;6.32;;;7.10;99.90;;;;;;12372572;28;20065;-83
2023/02/14 19:37:01;;;;;;;10.95;6.63;;;7.00;99.90;;;;;;12366103;28;20077;-84
2023/02/14 19:43:03;;;;;;;9.30;5.90;;;6.90;99.90;;;;;;12350435;28;20055;-84
2023/02/14 19:49:05;;;;;;;9.85;5.47;;;6.90;99.90;;;;;;12362229;28;20058;-84
2023/02/14 19:55:07;;;;;;;11.05;5.97;;;6.80;99.90;;;;;;12354113;28;20522;-84
2023/02/14 20:01:22;;;;;;;9.25;5.10;;;6.70;99.90;;;;;;12345009;28;20062;-84
2023/02/14 20:07:23;;;;;;;;;;;6.80;99.90;;;;;;12359880;28;20058;-84
2023/02/14 20:13:25;;;;;;;14.40;8.30;;;6.60;99.90;;;;;;12382899;28;19944;-83
2023/02/14 20:19:31;;;;;;;14.18;8.60;;;6.30;99.90;;;;;;12390966;28;20050;-83
2023/02/14 20:25:37;;;;;;;18.48;9.48;;;5.90;99.90;;;;;;12368707;28;20505;-83
2023/02/14 20:31:46;;;;;;;17.40;10.15;;;5.60;99.90;;;;;;12369000;28;20616;-83
2023/02/14 20:37:48;;;;;;;20.33;11.90;;;5.20;99.90;;;;;;12378034;28;20505;-83
2023/02/14 20:43:49;;;;;;;20.63;12.35;;;5.10;99.90;;;;;;12377735;28;20044;-83
2023/02/14 20:49:51;;;;;;;20.67;12.05;;;5.00;99.90;;;;;;12369024;28;20082;-83
2023/02/14 20:55:53;;;;;;;20.05;11.65;;;4.80;99.90;;;;;;12385991;28;20039;-83
2023/02/14 21:01:57;;;;;;;19.90;10.60;;;4.60;99.90;;;;;;12376179;28;20062;-83
2023/02/14 21:07:58;;;;;;;18.52;10.27;;;4.40;99.90;;;;;;12363761;28;20060;-84
2023/02/14 21:14:01;;;;;;;14.30;8.45;;;4.40;99.90;;;;;;12361553;28;20490;-84
2023/02/14 21:20:04;;;;;;;16.08;9.68;;;4.30;99.90;;;;;;12368861;28;20046;-84
2023/02/14 21:26:07;;;;;;;15.15;8.70;;;4.30;99.90;;;;;;12391272;28;20129;-83
2023/02/14 21:32:10;;;;;;;13.98;8.52;;;4.10;99.90;;;;;;12380799;28;20053;-83
2023/02/14 21:38:12;;;;;;;13.30;8.50;;;4.10;99.90;;;;;;12380319;28;20057;-83
2023/02/14 21:45:51;;;;;;;13.73;7.30;;;4.00;99.90;;;;;;12379812;28;20093;-83
2023/02/14 21:50:42;;;;;;;12.63;7.20;;;3.90;99.90;;;;;;12381025;28;20090;-83
2023/02/14 21:56:44;;;;;;;12.18;7.28;;;3.60;99.90;;;;;;12371666;28;20530;-84
2023/02/14 22:02:47;;;;;;;11.35;7.63;;;3.50;99.90;;;;;;12366727;28;20113;-83
2023/02/14 22:08:57;;;;;;;11.82;6.97;;;3.50;99.90;;;;;;12373320;28;20062;-83
2023/02/14 22:15:00;;;;;;;10.75;6.55;;;3.40;99.90;;;;;;12373960;28;20109;-83
2023/02/14 22:21:05;;;;;;;12.32;7.03;;;3.40;99.90;;;;;;12368409;28;20108;-83
2023/02/14 22:27:07;;;;;;;14.98;7.43;;;3.30;99.90;;;;;;12365241;28;20050;-83
2023/02/14 22:33:08;;;;;;;12.65;7.32;;;3.50;99.90;;;;;;12361287;28;20490;-83
2023/02/14 22:39:15;;;;;;;12.70;6.43;;;3.50;99.90;;;;;;12382071;28;20137;-83
2023/02/14 22:45:17;;;;;;;10.48;6.20;;;3.40;99.90;;;;;;12360210;28;20054;-83
2023/02/14 22:51:22;;;;;;;9.85;5.80;;;3.30;99.90;;;;;;12372867;28;20453;-83
2023/02/14 22:57:24;;;;;;;11.90;5.80;;;3.10;99.90;;;;;;12396185;28;20065;-83
2023/02/14 23:03:26;;;;;;;11.82;6.65;;;3.10;99.90;;;;;;12380810;28;20137;-83
2023/02/14 23:09:28;;;;;;;13.95;6.85;;;3.10;99.90;;;;;;12388490;28;20058;-83
2023/02/14 23:21:53;;;;;;;10.52;6.82;;;2.80;99.90;;;;;;12361346;28;20085;-83
2023/02/14 23:27:55;;;;;;;13.00;6.50;;;2.90;99.90;;;;;;12376171;28;20054;-83
2023/02/14 23:33:56;;;;;;;13.50;7.32;;;2.80;99.90;;;;;;12360362;28;20043;-83
2023/02/14 23:39:58;;;;;;;13.70;7.53;;;2.80;99.90;;;;;;12361353;28;20352;-83
2023/02/14 23:46:00;;;;;;;14.05;7.65;;;2.70;99.90;;;;;;12380870;28;20042;-83
2023/02/14 23:52:05;;;;;;;14.07;7.75;;;2.70;99.90;;;;;;12384024;28;20042;-83
2023/02/14 23:58:07;;;;;;;14.43;8.05;;;2.70;99.90;;;;;;12372808;28;20051;-83
